Absaraka, North Dakota
Current Conditions -  °F | °C
As of 8:53 PM on Saturday 22 Nov 2014 (Local Time) from KFAR Reporting Station
Haze Haze  
Wind Chill: 25°   Ceiling: 400
Heat Index: 35°   Visibility: 4mi
Dew Point: 32°   Wind: 17mph
Humidity: 89%   Direction: 150°SSE
Pressure: 29.39"   Gusts: NA
Location:  46.98°N, 97.39°W
Report Text: KFAR 230253Z 15015KT 4SM BR OVC004 02/00 A2939 RMK AO2 SLP962 T00170000 58014
Loading
Personal Weather Stations






























Interactive Weather Map New forecast layout! Learn more

10-Day Weather Forecast

Advertisements
Track Severe Weather on mobile